Terminal Aerodrome Forecast
Issued by NWS

Home | Current Version | Previous Version | Text Only | Print | Product List | Glossary On
Versions: 1 2 3 4 5 6 7 8 9 10 11 12 13 14 15 16 17 18 19 20 21 22 23 24 25
000
FTUS45 KPSR 031730
TAFPHX
TAF
KPHX 031730Z 0318/0418 16007KT P6SM FEW120 SCT160
     FM032300 27008KT P6SM FEW100 SCT250
     FM040200 26015KT P6SM BKN100 OVC250
     FM040900 29006KT P6SM VCSH SCT060 BKN080 OVC100
     FM041400 VRB06KT P6SM VCSH SCT040 BKN060 OVC080=

USA.gov is the U.S. government's official web portal to all federal, state and local government web resources and services.